sensor_id;sensor_type;location;lat;lon;timestamp;temperature;humidity
44695;DHT22;32845;59.422;17.930;2023-05-15T00:01:07;12.70;83.70
44695;DHT22;32845;59.422;17.930;2023-05-15T00:05:38;12.60;83.90
44695;DHT22;32845;59.422;17.930;2023-05-15T00:10:09;12.60;84.00
44695;DHT22;32845;59.422;17.930;2023-05-15T00:14:40;12.50;84.10
44695;DHT22;32845;59.422;17.930;2023-05-15T00:19:10;12.50;84.60
44695;DHT22;32845;59.422;17.930;2023-05-15T00:23:41;12.50;85.00
44695;DHT22;32845;59.422;17.930;2023-05-15T00:28:11;12.50;85.20
44695;DHT22;32845;59.422;17.930;2023-05-15T00:32:42;12.40;86.30
44695;DHT22;32845;59.422;17.930;2023-05-15T00:37:13;12.40;87.90
44695;DHT22;32845;59.422;17.930;2023-05-15T00:41:44;12.30;88.50
44695;DHT22;32845;59.422;17.930;2023-05-15T00:46:16;12.10;88.90
44695;DHT22;32845;59.422;17.930;2023-05-15T00:50:50;12.00;89.90
44695;DHT22;32845;59.422;17.930;2023-05-15T00:55:21;11.80;89.40
44695;DHT22;32845;59.422;17.930;2023-05-15T00:59:57;11.70;90.10
44695;DHT22;32845;59.422;17.930;2023-05-15T01:04:28;11.50;90.40
44695;DHT22;32845;59.422;17.930;2023-05-15T01:08:59;11.30;90.80
44695;DHT22;32845;59.422;17.930;2023-05-15T01:13:33;11.10;90.90
44695;DHT22;32845;59.422;17.930;2023-05-15T01:18:04;11.00;91.30
44695;DHT22;32845;59.422;17.930;2023-05-15T01:27:42;10.70;91.70
44695;DHT22;32845;59.422;17.930;2023-05-15T01:32:33;10.50;91.90
44695;DHT22;32845;59.422;17.930;2023-05-15T01:37:04;10.40;92.40
44695;DHT22;32845;59.422;17.930;2023-05-15T01:42:16;10.20;92.60
44695;DHT22;32845;59.422;17.930;2023-05-15T01:46:51;10.20;93.90
44695;DHT22;32845;59.422;17.930;2023-05-15T01:51:25;10.10;93.50
44695;DHT22;32845;59.422;17.930;2023-05-15T01:55:57;10.10;93.80
44695;DHT22;32845;59.422;17.930;2023-05-15T02:00:28;10.00;94.00
44695;DHT22;32845;59.422;17.930;2023-05-15T02:05:00;9.90;94.50
44695;DHT22;32845;59.422;17.930;2023-05-15T02:09:32;9.80;94.90
44695;DHT22;32845;59.422;17.930;2023-05-15T02:14:03;9.80;95.50
44695;DHT22;32845;59.422;17.930;2023-05-15T02:18:34;9.70;96.10
44695;DHT22;32845;59.422;17.930;2023-05-15T02:23:05;9.70;96.90
44695;DHT22;32845;59.422;17.930;2023-05-15T02:27:56;9.60;97.30
44695;DHT22;32845;59.422;17.930;2023-05-15T02:32:38;9.60;99.10
44695;DHT22;32845;59.422;17.930;2023-05-15T02:37:13;9.50;98.80
44695;DHT22;32845;59.422;17.930;2023-05-15T02:41:48;9.50;99.90
44695;DHT22;32845;59.422;17.930;2023-05-15T02:46:20;9.50;99.90
44695;DHT22;32845;59.422;17.930;2023-05-15T02:50:51;9.50;99.90
44695;DHT22;32845;59.422;17.930;2023-05-15T02:55:22;9.50;99.90
44695;DHT22;32845;59.422;17.930;2023-05-15T02:59:54;9.60;99.90
44695;DHT22;32845;59.422;17.930;2023-05-15T03:04:26;9.60;99.90
44695;DHT22;32845;59.422;17.930;2023-05-15T03:08:56;9.50;99.90
44695;DHT22;32845;59.422;17.930;2023-05-15T03:13:27;9.50;99.90
44695;DHT22;32845;59.422;17.930;2023-05-15T03:17:57;9.60;99.90
44695;DHT22;32845;59.422;17.930;2023-05-15T03:22:28;9.70;99.90
44695;DHT22;32845;59.422;17.930;2023-05-15T03:26:59;9.70;99.90
44695;DHT22;32845;59.422;17.930;2023-05-15T03:31:29;9.70;99.90
44695;DHT22;32845;59.422;17.930;2023-05-15T03:36:00;9.80;99.90
44695;DHT22;32845;59.422;17.930;2023-05-15T03:40:30;9.90;99.90
44695;DHT22;32845;59.422;17.930;2023-05-15T03:45:01;9.90;99.90
44695;DHT22;32845;59.422;17.930;2023-05-15T03:49:32;10.00;99.90
44695;DHT22;32845;59.422;17.930;2023-05-15T03:54:02;10.20;99.90
44695;DHT22;32845;59.422;17.930;2023-05-15T03:58:34;10.30;99.90
44695;DHT22;32845;59.422;17.930;2023-05-15T04:03:05;10.40;99.90
44695;DHT22;32845;59.422;17.930;2023-05-15T04:07:37;10.60;99.90
44695;DHT22;32845;59.422;17.930;2023-05-15T04:12:07;10.70;99.90
44695;DHT22;32845;59.422;17.930;2023-05-15T04:16:38;10.80;99.90
44695;DHT22;32845;59.422;17.930;2023-05-15T04:21:08;10.90;99.90
44695;DHT22;32845;59.422;17.930;2023-05-15T04:25:39;11.00;99.90
44695;DHT22;32845;59.422;17.930;2023-05-15T04:30:15;11.00;99.90
44695;DHT22;32845;59.422;17.930;2023-05-15T04:34:46;11.00;99.90
44695;DHT22;32845;59.422;17.930;2023-05-15T04:39:16;11.10;99.90
44695;DHT22;32845;59.422;17.930;2023-05-15T04:43:47;11.10;99.90
44695;DHT22;32845;59.422;17.930;2023-05-15T04:48:17;11.10;99.90
44695;DHT22;32845;59.422;17.930;2023-05-15T04:52:48;11.20;99.90
44695;DHT22;32845;59.422;17.930;2023-05-15T04:57:19;11.20;99.90
44695;DHT22;32845;59.422;17.930;2023-05-15T05:01:51;11.20;99.90
44695;DHT22;32845;59.422;17.930;2023-05-15T05:06:22;11.30;99.90
44695;DHT22;32845;59.422;17.930;2023-05-15T05:10:55;11.30;99.90
44695;DHT22;32845;59.422;17.930;2023-05-15T05:15:26;11.40;99.90
44695;DHT22;32845;59.422;17.930;2023-05-15T05:19:57;11.40;99.90
44695;DHT22;32845;59.422;17.930;2023-05-15T05:24:27;11.50;99.90
44695;DHT22;32845;59.422;17.930;2023-05-15T05:28:59;11.60;99.90
44695;DHT22;32845;59.422;17.930;2023-05-15T05:33:29;11.70;99.90
44695;DHT22;32845;59.422;17.930;2023-05-15T05:38:00;11.90;99.90
44695;DHT22;32845;59.422;17.930;2023-05-15T05:42:31;12.20;99.90
44695;DHT22;32845;59.422;17.930;2023-05-15T05:47:02;12.50;99.90
44695;DHT22;32845;59.422;17.930;2023-05-15T05:51:34;12.80;99.90
44695;DHT22;32845;59.422;17.930;2023-05-15T05:56:08;13.00;99.90
44695;DHT22;32845;59.422;17.930;2023-05-15T06:00:39;13.30;99.90
44695;DHT22;32845;59.422;17.930;2023-05-15T06:05:09;13.50;99.90
44695;DHT22;32845;59.422;17.930;2023-05-15T06:09:40;13.70;99.90
44695;DHT22;32845;59.422;17.930;2023-05-15T06:14:10;13.90;99.90
44695;DHT22;32845;59.422;17.930;2023-05-15T06:18:41;14.00;99.90
44695;DHT22;32845;59.422;17.930;2023-05-15T06:23:11;14.10;99.90
44695;DHT22;32845;59.422;17.930;2023-05-15T06:27:42;14.20;99.90
44695;DHT22;32845;59.422;17.930;2023-05-15T06:32:13;14.30;99.90
44695;DHT22;32845;59.422;17.930;2023-05-15T06:36:43;14.50;99.90
44695;DHT22;32845;59.422;17.930;2023-05-15T06:41:14;14.70;99.90
44695;DHT22;32845;59.422;17.930;2023-05-15T06:45:45;14.90;99.90
44695;DHT22;32845;59.422;17.930;2023-05-15T06:50:15;15.10;99.90
44695;DHT22;32845;59.422;17.930;2023-05-15T06:54:46;15.40;99.90
44695;DHT22;32845;59.422;17.930;2023-05-15T06:59:16;15.60;99.90
44695;DHT22;32845;59.422;17.930;2023-05-15T07:03:47;15.90;99.90
44695;DHT22;32845;59.422;17.930;2023-05-15T07:08:18;16.00;99.90
44695;DHT22;32845;59.422;17.930;2023-05-15T07:12:48;16.20;99.90
44695;DHT22;32845;59.422;17.930;2023-05-15T07:17:19;16.30;99.90
44695;DHT22;32845;59.422;17.930;2023-05-15T07:21:49;16.40;99.90
44695;DHT22;32845;59.422;17.930;2023-05-15T07:26:20;16.70;99.90
44695;DHT22;32845;59.422;17.930;2023-05-15T07:30:51;16.90;99.90
44695;DHT22;32845;59.422;17.930;2023-05-15T07:35:22;17.20;99.90
44695;DHT22;32845;59.422;17.930;2023-05-15T07:39:52;17.40;99.90
44695;DHT22;32845;59.422;17.930;2023-05-15T07:44:23;17.70;99.90
44695;DHT22;32845;59.422;17.930;2023-05-15T07:48:53;17.90;99.90
44695;DHT22;32845;59.422;17.930;2023-05-15T07:53:24;18.10;99.90
44695;DHT22;32845;59.422;17.930;2023-05-15T07:57:55;18.20;99.40
44695;DHT22;32845;59.422;17.930;2023-05-15T08:02:26;18.40;99.10
44695;DHT22;32845;59.422;17.930;2023-05-15T08:06:56;18.50;98.20
44695;DHT22;32845;59.422;17.930;2023-05-15T08:11:27;18.70;98.20
44695;DHT22;32845;59.422;17.930;2023-05-15T08:15:58;18.80;97.70
44695;DHT22;32845;59.422;17.930;2023-05-15T08:20:28;18.90;97.90
44695;DHT22;32845;59.422;17.930;2023-05-15T08:24:59;19.00;97.80
44695;DHT22;32845;59.422;17.930;2023-05-15T08:29:30;19.10;97.40
44695;DHT22;32845;59.422;17.930;2023-05-15T08:34:01;19.20;97.40
44695;DHT22;32845;59.422;17.930;2023-05-15T08:38:31;19.30;97.00
44695;DHT22;32845;59.422;17.930;2023-05-15T08:43:11;19.40;96.80
44695;DHT22;32845;59.422;17.930;2023-05-15T08:47:45;19.50;96.20
44695;DHT22;32845;59.422;17.930;2023-05-15T08:52:16;19.70;96.10
44695;DHT22;32845;59.422;17.930;2023-05-15T08:56:47;19.80;95.90
44695;DHT22;32845;59.422;17.930;2023-05-15T09:01:18;20.00;95.50
44695;DHT22;32845;59.422;17.930;2023-05-15T09:05:50;20.20;94.50
44695;DHT22;32845;59.422;17.930;2023-05-15T09:10:22;20.30;93.10
44695;DHT22;32845;59.422;17.930;2023-05-15T09:15:11;20.50;91.90
44695;DHT22;32845;59.422;17.930;2023-05-15T09:19:42;20.60;90.70
44695;DHT22;32845;59.422;17.930;2023-05-15T09:24:23;20.80;85.80
44695;DHT22;32845;59.422;17.930;2023-05-15T09:29:01;21.10;87.20
44695;DHT22;32845;59.422;17.930;2023-05-15T09:33:37;21.20;86.10
44695;DHT22;32845;59.422;17.930;2023-05-15T09:38:10;21.40;84.20
44695;DHT22;32845;59.422;17.930;2023-05-15T09:42:41;21.50;83.90
44695;DHT22;32845;59.422;17.930;2023-05-15T09:47:12;21.60;83.40
44695;DHT22;32845;59.422;17.930;2023-05-15T09:51:43;21.70;81.80
44695;DHT22;32845;59.422;17.930;2023-05-15T09:56:14;21.70;82.50
44695;DHT22;32845;59.422;17.930;2023-05-15T10:00:50;21.80;82.70
44695;DHT22;32845;59.422;17.930;2023-05-15T10:05:20;22.00;80.60
44695;DHT22;32845;59.422;17.930;2023-05-15T10:09:56;22.10;79.90
44695;DHT22;32845;59.422;17.930;2023-05-15T10:14:26;22.20;78.90
44695;DHT22;32845;59.422;17.930;2023-05-15T10:19:02;22.20;78.10
44695;DHT22;32845;59.422;17.930;2023-05-15T10:23:34;22.20;77.60
44695;DHT22;32845;59.422;17.930;2023-05-15T10:28:08;22.30;78.30
44695;DHT22;32845;59.422;17.930;2023-05-15T10:32:40;22.50;77.60
44695;DHT22;32845;59.422;17.930;2023-05-15T10:37:11;22.70;77.20
44695;DHT22;32845;59.422;17.930;2023-05-15T10:41:44;22.70;74.70
44695;DHT22;32845;59.422;17.930;2023-05-15T10:46:15;22.70;73.90
44695;DHT22;32845;59.422;17.930;2023-05-15T10:50:47;22.80;74.70
44695;DHT22;32845;59.422;17.930;2023-05-15T10:55:18;22.80;73.80
44695;DHT22;32845;59.422;17.930;2023-05-15T10:59:54;22.70;73.20
44695;DHT22;32845;59.422;17.930;2023-05-15T11:04:25;22.60;72.90
44695;DHT22;32845;59.422;17.930;2023-05-15T11:18:39;22.20;68.40
44695;DHT22;32845;59.422;17.930;2023-05-15T11:23:10;22.00;71.10
44695;DHT22;32845;59.422;17.930;2023-05-15T11:27:42;21.90;72.10
44695;DHT22;32845;59.422;17.930;2023-05-15T11:37:23;21.40;70.50
44695;DHT22;32845;59.422;17.930;2023-05-15T11:41:54;21.10;73.20
44695;DHT22;32845;59.422;17.930;2023-05-15T11:46:24;20.90;72.20
44695;DHT22;32845;59.422;17.930;2023-05-15T11:50:55;20.70;71.60
44695;DHT22;32845;59.422;17.930;2023-05-15T11:55:26;20.60;72.20
44695;DHT22;32845;59.422;17.930;2023-05-15T11:59:57;20.60;73.00
44695;DHT22;32845;59.422;17.930;2023-05-15T12:04:27;20.70;72.10
44695;DHT22;32845;59.422;17.930;2023-05-15T12:08:58;20.80;72.50
44695;DHT22;32845;59.422;17.930;2023-05-15T12:13:34;20.90;73.10
44695;DHT22;32845;59.422;17.930;2023-05-15T12:18:06;21.00;71.60
44695;DHT22;32845;59.422;17.930;2023-05-15T12:22:42;21.10;71.80
44695;DHT22;32845;59.422;17.930;2023-05-15T12:27:14;21.20;72.10
44695;DHT22;32845;59.422;17.930;2023-05-15T12:31:45;21.40;72.00
44695;DHT22;32845;59.422;17.930;2023-05-15T12:36:19;21.40;70.80
44695;DHT22;32845;59.422;17.930;2023-05-15T12:40:55;21.40;70.80
44695;DHT22;32845;59.422;17.930;2023-05-15T12:45:26;21.40;70.20
44695;DHT22;32845;59.422;17.930;2023-05-15T12:50:20;21.30;70.10
44695;DHT22;32845;59.422;17.930;2023-05-15T12:54:50;21.30;68.80
44695;DHT22;32845;59.422;17.930;2023-05-15T12:59:21;21.20;70.30
44695;DHT22;32845;59.422;17.930;2023-05-15T13:03:51;21.20;70.60
44695;DHT22;32845;59.422;17.930;2023-05-15T13:08:22;21.20;69.50
44695;DHT22;32845;59.422;17.930;2023-05-15T13:12:54;21.30;70.30
44695;DHT22;32845;59.422;17.930;2023-05-15T13:17:28;21.50;69.90
44695;DHT22;32845;59.422;17.930;2023-05-15T13:21:59;21.60;69.60
44695;DHT22;32845;59.422;17.930;2023-05-15T13:26:30;21.70;69.30
44695;DHT22;32845;59.422;17.930;2023-05-15T13:31:00;21.70;68.80
44695;DHT22;32845;59.422;17.930;2023-05-15T13:35:31;21.70;69.80
44695;DHT22;32845;59.422;17.930;2023-05-15T13:40:02;21.80;69.40
44695;DHT22;32845;59.422;17.930;2023-05-15T13:44:36;21.80;68.90
44695;DHT22;32845;59.422;17.930;2023-05-15T13:49:06;21.80;68.10
44695;DHT22;32845;59.422;17.930;2023-05-15T13:53:37;21.90;68.40
44695;DHT22;32845;59.422;17.930;2023-05-15T13:58:08;21.80;68.30
44695;DHT22;32845;59.422;17.930;2023-05-15T14:02:40;21.70;68.10
44695;DHT22;32845;59.422;17.930;2023-05-15T14:07:10;21.60;68.10
44695;DHT22;32845;59.422;17.930;2023-05-15T14:11:41;21.50;68.20
44695;DHT22;32845;59.422;17.930;2023-05-15T14:16:11;21.40;67.60
44695;DHT22;32845;59.422;17.930;2023-05-15T14:20:42;21.20;67.60
44695;DHT22;32845;59.422;17.930;2023-05-15T14:25:13;21.30;68.00
44695;DHT22;32845;59.422;17.930;2023-05-15T14:29:43;21.30;67.50
44695;DHT22;32845;59.422;17.930;2023-05-15T14:34:14;21.40;67.50
44695;DHT22;32845;59.422;17.930;2023-05-15T14:38:45;21.40;66.80
44695;DHT22;32845;59.422;17.930;2023-05-15T14:43:18;21.30;66.90
44695;DHT22;32845;59.422;17.930;2023-05-15T14:47:48;21.30;67.30
44695;DHT22;32845;59.422;17.930;2023-05-15T14:52:24;21.20;66.10
44695;DHT22;32845;59.422;17.930;2023-05-15T14:56:54;21.20;65.90
44695;DHT22;32845;59.422;17.930;2023-05-15T15:01:25;21.10;66.70
44695;DHT22;32845;59.422;17.930;2023-05-15T15:05:56;21.00;66.70
44695;DHT22;32845;59.422;17.930;2023-05-15T15:10:27;20.90;66.60
44695;DHT22;32845;59.422;17.930;2023-05-15T15:14:57;20.90;66.90
44695;DHT22;32845;59.422;17.930;2023-05-15T15:19:28;20.80;66.40
44695;DHT22;32845;59.422;17.930;2023-05-15T15:23:59;20.70;66.40
44695;DHT22;32845;59.422;17.930;2023-05-15T15:28:29;20.70;66.70
44695;DHT22;32845;59.422;17.930;2023-05-15T15:33:03;20.70;66.30
44695;DHT22;32845;59.422;17.930;2023-05-15T15:37:34;20.80;65.90
44695;DHT22;32845;59.422;17.930;2023-05-15T15:42:07;20.70;66.60
44695;DHT22;32845;59.422;17.930;2023-05-15T15:46:37;20.70;66.60
44695;DHT22;32845;59.422;17.930;2023-05-15T15:51:13;20.70;67.10
44695;DHT22;32845;59.422;17.930;2023-05-15T15:55:43;20.70;67.10
44695;DHT22;32845;59.422;17.930;2023-05-15T16:00:14;20.70;66.80
44695;DHT22;32845;59.422;17.930;2023-05-15T16:04:45;20.60;67.50
44695;DHT22;32845;59.422;17.930;2023-05-15T16:09:15;20.50;67.30
44695;DHT22;32845;59.422;17.930;2023-05-15T16:13:49;20.50;67.90
44695;DHT22;32845;59.422;17.930;2023-05-15T16:18:20;20.50;68.00
44695;DHT22;32845;59.422;17.930;2023-05-15T16:22:50;20.40;68.40
44695;DHT22;32845;59.422;17.930;2023-05-15T16:27:21;20.40;68.90
44695;DHT22;32845;59.422;17.930;2023-05-15T16:31:52;20.40;69.00
44695;DHT22;32845;59.422;17.930;2023-05-15T16:36:22;20.30;69.70
44695;DHT22;32845;59.422;17.930;2023-05-15T16:40:53;20.30;68.90
44695;DHT22;32845;59.422;17.930;2023-05-15T16:45:23;20.20;68.70
44695;DHT22;32845;59.422;17.930;2023-05-15T16:49:54;20.20;68.80
44695;DHT22;32845;59.422;17.930;2023-05-15T16:54:25;20.10;69.20
44695;DHT22;32845;59.422;17.930;2023-05-15T16:58:55;20.00;69.60
44695;DHT22;32845;59.422;17.930;2023-05-15T17:03:26;20.00;69.20
44695;DHT22;32845;59.422;17.930;2023-05-15T17:07:57;19.90;69.10
44695;DHT22;32845;59.422;17.930;2023-05-15T17:12:28;19.80;69.30
44695;DHT22;32845;59.422;17.930;2023-05-15T17:16:58;19.60;69.30
44695;DHT22;32845;59.422;17.930;2023-05-15T17:21:34;19.60;69.60
44695;DHT22;32845;59.422;17.930;2023-05-15T17:26:06;19.50;69.90
44695;DHT22;32845;59.422;17.930;2023-05-15T17:30:37;19.40;70.40
44695;DHT22;32845;59.422;17.930;2023-05-15T17:35:08;19.30;70.60
44695;DHT22;32845;59.422;17.930;2023-05-15T17:39:39;19.20;70.40
44695;DHT22;32845;59.422;17.930;2023-05-15T17:44:10;19.10;70.80
44695;DHT22;32845;59.422;17.930;2023-05-15T17:48:41;19.10;72.30
44695;DHT22;32845;59.422;17.930;2023-05-15T17:53:13;19.00;71.50
44695;DHT22;32845;59.422;17.930;2023-05-15T17:57:44;19.00;72.00
44695;DHT22;32845;59.422;17.930;2023-05-15T18:02:15;18.80;72.30
44695;DHT22;32845;59.422;17.930;2023-05-15T18:06:45;18.80;72.70
44695;DHT22;32845;59.422;17.930;2023-05-15T18:11:16;18.70;72.80
44695;DHT22;32845;59.422;17.930;2023-05-15T18:15:47;18.70;73.90
44695;DHT22;32845;59.422;17.930;2023-05-15T18:20:18;18.60;74.50
44695;DHT22;32845;59.422;17.930;2023-05-15T18:24:48;18.50;75.00
44695;DHT22;32845;59.422;17.930;2023-05-15T18:29:19;18.40;75.60
44695;DHT22;32845;59.422;17.930;2023-05-15T18:33:50;18.40;76.20
44695;DHT22;32845;59.422;17.930;2023-05-15T18:38:20;18.30;76.70
44695;DHT22;32845;59.422;17.930;2023-05-15T18:42:52;18.10;77.20
44695;DHT22;32845;59.422;17.930;2023-05-15T18:47:25;18.10;77.70
44695;DHT22;32845;59.422;17.930;2023-05-15T18:51:56;17.90;78.20
44695;DHT22;32845;59.422;17.930;2023-05-15T18:56:27;17.80;79.00
44695;DHT22;32845;59.422;17.930;2023-05-15T19:00:58;17.60;79.00
44695;DHT22;32845;59.422;17.930;2023-05-15T19:05:29;17.50;79.50
44695;DHT22;32845;59.422;17.930;2023-05-15T19:10:02;17.30;80.10
44695;DHT22;32845;59.422;17.930;2023-05-15T19:14:33;17.20;80.60
44695;DHT22;32845;59.422;17.930;2023-05-15T19:19:03;17.10;81.00
44695;DHT22;32845;59.422;17.930;2023-05-15T19:23:34;16.90;82.00
44695;DHT22;32845;59.422;17.930;2023-05-15T19:28:05;16.80;82.80
44695;DHT22;32845;59.422;17.930;2023-05-15T19:32:36;16.60;83.30
44695;DHT22;32845;59.422;17.930;2023-05-15T19:37:06;16.40;84.30
44695;DHT22;32845;59.422;17.930;2023-05-15T19:41:37;16.20;84.70
44695;DHT22;32845;59.422;17.930;2023-05-15T19:46:08;16.10;85.40
44695;DHT22;32845;59.422;17.930;2023-05-15T19:50:38;15.90;86.10
44695;DHT22;32845;59.422;17.930;2023-05-15T19:55:09;15.80;86.90
44695;DHT22;32845;59.422;17.930;2023-05-15T19:59:40;15.80;87.60
44695;DHT22;32845;59.422;17.930;2023-05-15T20:04:10;15.70;88.20
44695;DHT22;32845;59.422;17.930;2023-05-15T20:08:42;15.50;88.70
44695;DHT22;32845;59.422;17.930;2023-05-15T20:13:13;15.40;89.10
44695;DHT22;32845;59.422;17.930;2023-05-15T20:17:44;15.30;89.80
44695;DHT22;32845;59.422;17.930;2023-05-15T20:22:16;15.20;90.20
44695;DHT22;32845;59.422;17.930;2023-05-15T20:26:46;15.10;90.50
44695;DHT22;32845;59.422;17.930;2023-05-15T20:31:17;14.90;90.80
44695;DHT22;32845;59.422;17.930;2023-05-15T20:35:47;14.70;91.20
44695;DHT22;32845;59.422;17.930;2023-05-15T20:40:20;14.60;91.50
44695;DHT22;32845;59.422;17.930;2023-05-15T20:44:52;14.40;91.80
44695;DHT22;32845;59.422;17.930;2023-05-15T20:49:23;14.30;92.10
44695;DHT22;32845;59.422;17.930;2023-05-15T20:53:53;14.20;92.60
44695;DHT22;32845;59.422;17.930;2023-05-15T20:58:24;14.00;92.90
44695;DHT22;32845;59.422;17.930;2023-05-15T21:02:59;14.00;93.50
44695;DHT22;32845;59.422;17.930;2023-05-15T21:07:30;13.90;93.70
44695;DHT22;32845;59.422;17.930;2023-05-15T21:12:01;13.80;94.20
44695;DHT22;32845;59.422;17.930;2023-05-15T21:16:33;13.80;94.80
44695;DHT22;32845;59.422;17.930;2023-05-15T21:21:04;13.70;95.40
44695;DHT22;32845;59.422;17.930;2023-05-15T21:25:38;13.60;96.00
44695;DHT22;32845;59.422;17.930;2023-05-15T21:30:09;13.50;96.60
44695;DHT22;32845;59.422;17.930;2023-05-15T21:34:40;13.40;97.40
44695;DHT22;32845;59.422;17.930;2023-05-15T21:39:11;13.40;98.40
44695;DHT22;32845;59.422;17.930;2023-05-15T21:43:41;13.30;99.40
44695;DHT22;32845;59.422;17.930;2023-05-15T21:48:12;13.20;99.90
44695;DHT22;32845;59.422;17.930;2023-05-15T21:52:43;13.10;99.90
44695;DHT22;32845;59.422;17.930;2023-05-15T21:57:13;13.10;99.90
44695;DHT22;32845;59.422;17.930;2023-05-15T22:01:44;13.00;99.90
44695;DHT22;32845;59.422;17.930;2023-05-15T22:06:14;12.80;99.90
44695;DHT22;32845;59.422;17.930;2023-05-15T22:10:45;12.80;99.90
44695;DHT22;32845;59.422;17.930;2023-05-15T22:15:16;12.70;99.90
44695;DHT22;32845;59.422;17.930;2023-05-15T22:19:47;12.60;99.90
44695;DHT22;32845;59.422;17.930;2023-05-15T22:24:20;12.60;99.90
44695;DHT22;32845;59.422;17.930;2023-05-15T22:28:53;12.50;99.90
44695;DHT22;32845;59.422;17.930;2023-05-15T22:33:25;12.40;99.90
44695;DHT22;32845;59.422;17.930;2023-05-15T22:37:56;12.30;99.90
44695;DHT22;32845;59.422;17.930;2023-05-15T22:42:26;12.30;99.90
44695;DHT22;32845;59.422;17.930;2023-05-15T22:46:58;12.20;99.90
44695;DHT22;32845;59.422;17.930;2023-05-15T22:51:29;12.20;99.90
44695;DHT22;32845;59.422;17.930;2023-05-15T22:56:00;12.20;99.90
44695;DHT22;32845;59.422;17.930;2023-05-15T23:00:31;12.30;99.90
44695;DHT22;32845;59.422;17.930;2023-05-15T23:05:02;12.30;99.90
44695;DHT22;32845;59.422;17.930;2023-05-15T23:09:33;12.30;99.90
44695;DHT22;32845;59.422;17.930;2023-05-15T23:14:04;12.40;99.90
44695;DHT22;32845;59.422;17.930;2023-05-15T23:18:35;12.40;99.90
44695;DHT22;32845;59.422;17.930;2023-05-15T23:23:05;12.30;99.90
44695;DHT22;32845;59.422;17.930;2023-05-15T23:27:36;12.30;99.90
44695;DHT22;32845;59.422;17.930;2023-05-15T23:32:06;12.20;99.90
44695;DHT22;32845;59.422;17.930;2023-05-15T23:36:37;12.20;99.90
44695;DHT22;32845;59.422;17.930;2023-05-15T23:41:08;12.20;99.90
44695;DHT22;32845;59.422;17.930;2023-05-15T23:45:38;12.20;99.90
44695;DHT22;32845;59.422;17.930;2023-05-15T23:50:09;12.20;99.90
44695;DHT22;32845;59.422;17.930;2023-05-15T23:54:40;12.10;99.90
44695;DHT22;32845;59.422;17.930;2023-05-15T23:59:10;12.00;99.90
